Terminal Aerodrome Forecast
Issued by NWS

Home | Current Version | Previous Version | Text Only | Print | Product List | Glossary On
Versions: 1 2 3 4 5 6 7 8 9 10 11 12 13 14 15 16 17 18 19 20 21 22 23
505
FTUS44 KLZK 251120
TAFLIT
TAF
KLIT 251120Z 2512/2612 24003KT P6SM SCT250
     FM251600 VRB04KT P6SM SCT050 BKN100
     FM251900 33006KT P6SM VCTS SCT040CB BKN100 OVC250
     FM252100 33008KT P6SM -TSRA BKN050CB OVC100
     FM252300 27007KT 5SM -RA BR SCT010 OVC025
      TEMPO 2523/2603 3SM -RA BR OVC010
     FM260300 33006KT 3SM -RA BR OVC007
     FM260800 34005KT 6SM BR OVC009=

USA.gov is the U.S. government's official web portal to all federal, state and local government web resources and services.